sensor_id;sensor_type;location;lat;lon;timestamp;temperature;humidity
34095;DHT22;20372;47.080;15.410;2022-08-19T00:01:36;20.50;91.20
34095;DHT22;20372;47.080;15.410;2022-08-19T00:04:02;20.50;91.50
34095;DHT22;20372;47.080;15.410;2022-08-19T00:06:29;20.30;92.00
34095;DHT22;20372;47.080;15.410;2022-08-19T00:08:56;20.20;92.40
34095;DHT22;20372;47.080;15.410;2022-08-19T00:11:22;20.00;92.60
34095;DHT22;20372;47.080;15.410;2022-08-19T00:13:48;19.80;92.90
34095;DHT22;20372;47.080;15.410;2022-08-19T00:16:16;19.80;93.00
34095;DHT22;20372;47.080;15.410;2022-08-19T00:18:46;19.90;92.60
34095;DHT22;20372;47.080;15.410;2022-08-19T00:21:12;20.00;92.70
34095;DHT22;20372;47.080;15.410;2022-08-19T00:23:37;20.00;92.60
34095;DHT22;20372;47.080;15.410;2022-08-19T00:26:04;19.90;92.70
34095;DHT22;20372;47.080;15.410;2022-08-19T00:28:30;19.80;92.90
34095;DHT22;20372;47.080;15.410;2022-08-19T00:30:56;19.80;93.10
34095;DHT22;20372;47.080;15.410;2022-08-19T00:33:21;19.80;93.10
34095;DHT22;20372;47.080;15.410;2022-08-19T00:35:47;19.80;93.00
34095;DHT22;20372;47.080;15.410;2022-08-19T00:38:13;19.60;93.60
34095;DHT22;20372;47.080;15.410;2022-08-19T00:40:39;19.50;94.00
34095;DHT22;20372;47.080;15.410;2022-08-19T00:43:09;19.50;93.70
34095;DHT22;20372;47.080;15.410;2022-08-19T00:45:35;19.60;93.70
34095;DHT22;20372;47.080;15.410;2022-08-19T00:48:01;19.60;93.60
34095;DHT22;20372;47.080;15.410;2022-08-19T00:50:30;19.70;93.60
34095;DHT22;20372;47.080;15.410;2022-08-19T00:52:55;19.70;93.40
34095;DHT22;20372;47.080;15.410;2022-08-19T00:55:22;19.70;93.30
34095;DHT22;20372;47.080;15.410;2022-08-19T00:57:53;19.60;93.50
34095;DHT22;20372;47.080;15.410;2022-08-19T01:00:21;19.70;93.70
34095;DHT22;20372;47.080;15.410;2022-08-19T01:02:47;19.80;93.70
34095;DHT22;20372;47.080;15.410;2022-08-19T01:05:14;19.60;93.50
34095;DHT22;20372;47.080;15.410;2022-08-19T01:07:43;19.60;93.90
34095;DHT22;20372;47.080;15.410;2022-08-19T01:10:14;19.60;93.80
34095;DHT22;20372;47.080;15.410;2022-08-19T01:12:40;19.60;94.40
34095;DHT22;20372;47.080;15.410;2022-08-19T01:15:06;19.50;94.60
34095;DHT22;20372;47.080;15.410;2022-08-19T01:17:33;19.50;94.70
34095;DHT22;20372;47.080;15.410;2022-08-19T01:19:59;19.50;94.60
34095;DHT22;20372;47.080;15.410;2022-08-19T01:22:31;19.50;94.60
34095;DHT22;20372;47.080;15.410;2022-08-19T01:25:00;19.60;94.40
34095;DHT22;20372;47.080;15.410;2022-08-19T01:27:26;19.70;93.40
34095;DHT22;20372;47.080;15.410;2022-08-19T01:29:52;19.80;92.90
34095;DHT22;20372;47.080;15.410;2022-08-19T01:32:17;20.00;92.10
34095;DHT22;20372;47.080;15.410;2022-08-19T01:34:44;20.30;91.70
34095;DHT22;20372;47.080;15.410;2022-08-19T01:37:13;20.30;91.70
34095;DHT22;20372;47.080;15.410;2022-08-19T01:39:39;20.30;91.90
34095;DHT22;20372;47.080;15.410;2022-08-19T01:42:06;20.10;92.00
34095;DHT22;20372;47.080;15.410;2022-08-19T01:44:35;20.10;92.20
34095;DHT22;20372;47.080;15.410;2022-08-19T01:47:01;20.10;92.10
34095;DHT22;20372;47.080;15.410;2022-08-19T01:49:27;20.10;91.90
34095;DHT22;20372;47.080;15.410;2022-08-19T01:51:53;20.10;92.00
34095;DHT22;20372;47.080;15.410;2022-08-19T01:54:19;20.10;91.80
34095;DHT22;20372;47.080;15.410;2022-08-19T01:56:45;20.20;91.80
34095;DHT22;20372;47.080;15.410;2022-08-19T01:59:12;20.10;91.90
34095;DHT22;20372;47.080;15.410;2022-08-19T02:01:38;20.20;91.70
34095;DHT22;20372;47.080;15.410;2022-08-19T02:04:04;20.20;91.60
34095;DHT22;20372;47.080;15.410;2022-08-19T02:06:31;20.30;91.40
34095;DHT22;20372;47.080;15.410;2022-08-19T02:08:57;20.40;91.00
34095;DHT22;20372;47.080;15.410;2022-08-19T02:11:24;20.50;91.10
34095;DHT22;20372;47.080;15.410;2022-08-19T02:13:52;20.40;92.00
34095;DHT22;20372;47.080;15.410;2022-08-19T02:16:18;20.20;92.60
34095;DHT22;20372;47.080;15.410;2022-08-19T02:18:44;20.00;92.60
34095;DHT22;20372;47.080;15.410;2022-08-19T02:21:10;20.00;92.00
34095;DHT22;20372;47.080;15.410;2022-08-19T02:23:36;20.20;91.30
34095;DHT22;20372;47.080;15.410;2022-08-19T02:26:02;20.40;90.90
34095;DHT22;20372;47.080;15.410;2022-08-19T02:28:27;20.50;90.90
34095;DHT22;20372;47.080;15.410;2022-08-19T02:30:53;20.50;91.00
34095;DHT22;20372;47.080;15.410;2022-08-19T02:33:18;20.30;91.30
34095;DHT22;20372;47.080;15.410;2022-08-19T02:35:45;20.30;91.50
34095;DHT22;20372;47.080;15.410;2022-08-19T02:38:11;20.20;91.50
34095;DHT22;20372;47.080;15.410;2022-08-19T02:40:53;20.30;91.60
34095;DHT22;20372;47.080;15.410;2022-08-19T02:43:19;20.30;91.20
34095;DHT22;20372;47.080;15.410;2022-08-19T02:45:45;20.40;91.50
34095;DHT22;20372;47.080;15.410;2022-08-19T02:48:14;20.30;91.70
34095;DHT22;20372;47.080;15.410;2022-08-19T02:50:41;20.30;92.40
34095;DHT22;20372;47.080;15.410;2022-08-19T02:53:07;20.20;92.50
34095;DHT22;20372;47.080;15.410;2022-08-19T02:55:33;20.10;93.00
34095;DHT22;20372;47.080;15.410;2022-08-19T02:57:59;20.00;93.10
34095;DHT22;20372;47.080;15.410;2022-08-19T03:00:25;20.00;93.30
34095;DHT22;20372;47.080;15.410;2022-08-19T03:02:52;19.90;94.00
34095;DHT22;20372;47.080;15.410;2022-08-19T03:05:17;19.90;94.00
34095;DHT22;20372;47.080;15.410;2022-08-19T03:07:43;19.80;93.90
34095;DHT22;20372;47.080;15.410;2022-08-19T03:10:09;19.70;93.90
34095;DHT22;20372;47.080;15.410;2022-08-19T03:12:35;19.80;94.00
34095;DHT22;20372;47.080;15.410;2022-08-19T03:15:01;19.70;93.70
34095;DHT22;20372;47.080;15.410;2022-08-19T03:17:27;19.70;94.20
34095;DHT22;20372;47.080;15.410;2022-08-19T03:19:53;19.70;94.50
34095;DHT22;20372;47.080;15.410;2022-08-19T03:22:19;19.70;94.60
34095;DHT22;20372;47.080;15.410;2022-08-19T03:24:44;19.60;94.80
34095;DHT22;20372;47.080;15.410;2022-08-19T03:27:10;19.60;94.50
34095;DHT22;20372;47.080;15.410;2022-08-19T03:29:37;19.60;94.30
34095;DHT22;20372;47.080;15.410;2022-08-19T03:32:05;19.60;94.70
34095;DHT22;20372;47.080;15.410;2022-08-19T03:34:31;19.60;95.10
34095;DHT22;20372;47.080;15.410;2022-08-19T03:36:58;19.60;95.30
34095;DHT22;20372;47.080;15.410;2022-08-19T03:39:26;19.60;95.10
34095;DHT22;20372;47.080;15.410;2022-08-19T03:41:52;19.60;95.00
34095;DHT22;20372;47.080;15.410;2022-08-19T03:44:22;19.60;94.50
34095;DHT22;20372;47.080;15.410;2022-08-19T03:46:50;19.60;95.00
34095;DHT22;20372;47.080;15.410;2022-08-19T03:49:16;19.60;95.60
34095;DHT22;20372;47.080;15.410;2022-08-19T03:51:42;19.60;94.90
34095;DHT22;20372;47.080;15.410;2022-08-19T03:54:10;19.60;95.00
34095;DHT22;20372;47.080;15.410;2022-08-19T03:56:36;19.70;94.60
34095;DHT22;20372;47.080;15.410;2022-08-19T03:59:04;19.70;95.20
34095;DHT22;20372;47.080;15.410;2022-08-19T04:01:30;19.70;95.10
34095;DHT22;20372;47.080;15.410;2022-08-19T04:03:56;19.70;94.90
34095;DHT22;20372;47.080;15.410;2022-08-19T04:06:23;19.60;94.60
34095;DHT22;20372;47.080;15.410;2022-08-19T04:08:50;19.60;93.60
34095;DHT22;20372;47.080;15.410;2022-08-19T04:11:20;19.80;93.80
34095;DHT22;20372;47.080;15.410;2022-08-19T04:13:46;19.80;93.70
34095;DHT22;20372;47.080;15.410;2022-08-19T04:16:13;20.00;92.80
34095;DHT22;20372;47.080;15.410;2022-08-19T04:18:39;20.10;93.10
34095;DHT22;20372;47.080;15.410;2022-08-19T04:21:05;20.10;93.00
34095;DHT22;20372;47.080;15.410;2022-08-19T04:23:32;20.00;93.00
34095;DHT22;20372;47.080;15.410;2022-08-19T04:25:58;20.00;93.00
34095;DHT22;20372;47.080;15.410;2022-08-19T04:28:24;20.00;93.10
34095;DHT22;20372;47.080;15.410;2022-08-19T04:30:50;20.10;92.70
34095;DHT22;20372;47.080;15.410;2022-08-19T04:33:17;20.10;92.60
34095;DHT22;20372;47.080;15.410;2022-08-19T04:35:45;20.20;92.60
34095;DHT22;20372;47.080;15.410;2022-08-19T04:38:13;20.20;92.30
34095;DHT22;20372;47.080;15.410;2022-08-19T04:40:43;20.30;92.10
34095;DHT22;20372;47.080;15.410;2022-08-19T04:43:27;20.30;92.10
34095;DHT22;20372;47.080;15.410;2022-08-19T04:45:53;20.20;92.50
34095;DHT22;20372;47.080;15.410;2022-08-19T04:48:19;20.30;92.40
34095;DHT22;20372;47.080;15.410;2022-08-19T04:50:52;20.50;92.10
34095;DHT22;20372;47.080;15.410;2022-08-19T04:53:29;20.70;91.90
34095;DHT22;20372;47.080;15.410;2022-08-19T04:55:56;20.70;91.80
34095;DHT22;20372;47.080;15.410;2022-08-19T04:58:22;20.90;91.00
34095;DHT22;20372;47.080;15.410;2022-08-19T05:00:48;21.30;90.20
34095;DHT22;20372;47.080;15.410;2022-08-19T05:03:14;21.50;89.30
34095;DHT22;20372;47.080;15.410;2022-08-19T05:05:43;21.70;88.80
34095;DHT22;20372;47.080;15.410;2022-08-19T05:08:10;21.90;88.00
34095;DHT22;20372;47.080;15.410;2022-08-19T05:10:36;22.00;86.90
34095;DHT22;20372;47.080;15.410;2022-08-19T05:13:02;22.00;88.70
34095;DHT22;20372;47.080;15.410;2022-08-19T05:15:28;21.80;89.30
34095;DHT22;20372;47.080;15.410;2022-08-19T05:17:54;21.80;87.40
34095;DHT22;20372;47.080;15.410;2022-08-19T05:20:38;21.90;86.70
34095;DHT22;20372;47.080;15.410;2022-08-19T05:23:22;22.00;88.80
34095;DHT22;20372;47.080;15.410;2022-08-19T05:25:48;21.90;88.00
34095;DHT22;20372;47.080;15.410;2022-08-19T05:28:14;21.80;88.30
34095;DHT22;20372;47.080;15.410;2022-08-19T05:30:39;21.80;90.00
34095;DHT22;20372;47.080;15.410;2022-08-19T05:33:06;21.90;86.70
34095;DHT22;20372;47.080;15.410;2022-08-19T05:35:35;22.00;86.30
34095;DHT22;20372;47.080;15.410;2022-08-19T05:38:02;22.10;87.20
34095;DHT22;20372;47.080;15.410;2022-08-19T05:40:27;22.30;88.90
34095;DHT22;20372;47.080;15.410;2022-08-19T05:42:54;22.40;90.20
34095;DHT22;20372;47.080;15.410;2022-08-19T05:45:20;22.50;90.20
34095;DHT22;20372;47.080;15.410;2022-08-19T05:47:47;22.50;91.00
34095;DHT22;20372;47.080;15.410;2022-08-19T05:50:12;22.50;89.80
34095;DHT22;20372;47.080;15.410;2022-08-19T05:52:38;22.50;90.10
34095;DHT22;20372;47.080;15.410;2022-08-19T05:55:04;22.90;84.30
34095;DHT22;20372;47.080;15.410;2022-08-19T05:57:31;23.00;83.20
34095;DHT22;20372;47.080;15.410;2022-08-19T05:59:57;22.90;83.10
34095;DHT22;20372;47.080;15.410;2022-08-19T06:02:25;23.20;88.00
34095;DHT22;20372;47.080;15.410;2022-08-19T06:04:51;23.30;89.00
34095;DHT22;20372;47.080;15.410;2022-08-19T06:07:17;23.30;84.30
34095;DHT22;20372;47.080;15.410;2022-08-19T06:09:42;23.10;82.10
34095;DHT22;20372;47.080;15.410;2022-08-19T06:12:08;23.00;84.90
34095;DHT22;20372;47.080;15.410;2022-08-19T06:14:34;23.00;82.80
34095;DHT22;20372;47.080;15.410;2022-08-19T06:17:00;23.00;83.10
34095;DHT22;20372;47.080;15.410;2022-08-19T06:19:27;23.00;84.10
34095;DHT22;20372;47.080;15.410;2022-08-19T06:21:55;23.10;83.00
34095;DHT22;20372;47.080;15.410;2022-08-19T06:24:24;22.90;82.90
34095;DHT22;20372;47.080;15.410;2022-08-19T06:26:51;23.10;87.80
34095;DHT22;20372;47.080;15.410;2022-08-19T06:29:18;22.90;83.50
34095;DHT22;20372;47.080;15.410;2022-08-19T06:31:45;22.70;84.10
34095;DHT22;20372;47.080;15.410;2022-08-19T06:34:11;22.70;84.40
34095;DHT22;20372;47.080;15.410;2022-08-19T06:36:38;22.70;84.10
34095;DHT22;20372;47.080;15.410;2022-08-19T06:39:08;23.00;83.30
34095;DHT22;20372;47.080;15.410;2022-08-19T06:41:38;23.30;83.00
34095;DHT22;20372;47.080;15.410;2022-08-19T06:44:04;23.70;83.40
34095;DHT22;20372;47.080;15.410;2022-08-19T06:46:30;23.90;81.90
34095;DHT22;20372;47.080;15.410;2022-08-19T06:48:56;24.00;80.40
34095;DHT22;20372;47.080;15.410;2022-08-19T06:51:22;23.90;79.80
34095;DHT22;20372;47.080;15.410;2022-08-19T06:53:50;23.80;80.70
34095;DHT22;20372;47.080;15.410;2022-08-19T06:56:17;23.90;80.30
34095;DHT22;20372;47.080;15.410;2022-08-19T06:58:43;23.90;79.20
34095;DHT22;20372;47.080;15.410;2022-08-19T07:01:09;24.00;81.10
34095;DHT22;20372;47.080;15.410;2022-08-19T07:03:36;24.10;82.80
34095;DHT22;20372;47.080;15.410;2022-08-19T07:06:02;24.10;83.90
34095;DHT22;20372;47.080;15.410;2022-08-19T07:08:28;23.90;82.60
34095;DHT22;20372;47.080;15.410;2022-08-19T07:10:54;23.90;85.40
34095;DHT22;20372;47.080;15.410;2022-08-19T07:13:20;23.80;84.10
34095;DHT22;20372;47.080;15.410;2022-08-19T07:15:47;23.70;84.90
34095;DHT22;20372;47.080;15.410;2022-08-19T07:18:12;23.60;87.20
34095;DHT22;20372;47.080;15.410;2022-08-19T07:20:39;23.50;84.30
34095;DHT22;20372;47.080;15.410;2022-08-19T07:23:07;23.40;86.30
34095;DHT22;20372;47.080;15.410;2022-08-19T07:25:33;23.40;89.20
34095;DHT22;20372;47.080;15.410;2022-08-19T07:27:58;23.40;89.70
34095;DHT22;20372;47.080;15.410;2022-08-19T07:30:24;23.30;88.30
34095;DHT22;20372;47.080;15.410;2022-08-19T07:32:50;23.20;87.80
34095;DHT22;20372;47.080;15.410;2022-08-19T07:35:17;23.20;85.20
34095;DHT22;20372;47.080;15.410;2022-08-19T07:37:44;23.10;83.40
34095;DHT22;20372;47.080;15.410;2022-08-19T07:40:11;23.10;86.20
34095;DHT22;20372;47.080;15.410;2022-08-19T07:42:37;23.00;83.30
34095;DHT22;20372;47.080;15.410;2022-08-19T07:45:02;23.00;83.40
34095;DHT22;20372;47.080;15.410;2022-08-19T07:47:28;23.00;85.50
34095;DHT22;20372;47.080;15.410;2022-08-19T07:49:56;22.90;87.60
34095;DHT22;20372;47.080;15.410;2022-08-19T07:52:21;22.80;86.50
34095;DHT22;20372;47.080;15.410;2022-08-19T07:54:47;22.70;87.10
34095;DHT22;20372;47.080;15.410;2022-08-19T07:57:13;22.70;87.90
34095;DHT22;20372;47.080;15.410;2022-08-19T07:59:39;22.70;89.10
34095;DHT22;20372;47.080;15.410;2022-08-19T08:02:05;22.50;89.70
34095;DHT22;20372;47.080;15.410;2022-08-19T08:04:31;22.30;90.30
34095;DHT22;20372;47.080;15.410;2022-08-19T08:07:15;22.20;91.30
34095;DHT22;20372;47.080;15.410;2022-08-19T08:10:19;22.00;93.50
34095;DHT22;20372;47.080;15.410;2022-08-19T08:12:45;21.90;94.40
34095;DHT22;20372;47.080;15.410;2022-08-19T08:15:12;21.80;95.80
34095;DHT22;20372;47.080;15.410;2022-08-19T08:17:42;21.50;94.00
34095;DHT22;20372;47.080;15.410;2022-08-19T08:20:08;21.40;94.40
34095;DHT22;20372;47.080;15.410;2022-08-19T08:22:34;20.90;96.30
34095;DHT22;20372;47.080;15.410;2022-08-19T08:25:20;20.90;95.40
34095;DHT22;20372;47.080;15.410;2022-08-19T08:27:48;20.50;96.00
34095;DHT22;20372;47.080;15.410;2022-08-19T08:30:22;20.40;97.00
34095;DHT22;20372;47.080;15.410;2022-08-19T08:32:48;20.20;99.10
34095;DHT22;20372;47.080;15.410;2022-08-19T08:35:15;20.30;99.90
34095;DHT22;20372;47.080;15.410;2022-08-19T08:37:42;20.30;99.90
34095;DHT22;20372;47.080;15.410;2022-08-19T08:40:11;20.20;99.90
34095;DHT22;20372;47.080;15.410;2022-08-19T08:42:40;20.40;99.90
34095;DHT22;20372;47.080;15.410;2022-08-19T08:45:12;20.40;99.90
34095;DHT22;20372;47.080;15.410;2022-08-19T08:47:40;20.20;99.80
34095;DHT22;20372;47.080;15.410;2022-08-19T08:50:14;20.30;99.90
34095;DHT22;20372;47.080;15.410;2022-08-19T08:52:43;20.60;99.90
34095;DHT22;20372;47.080;15.410;2022-08-19T08:55:11;20.90;99.90
34095;DHT22;20372;47.080;15.410;2022-08-19T09:00:10;21.00;98.90
34095;DHT22;20372;47.080;15.410;2022-08-19T09:02:38;20.90;99.30
34095;DHT22;20372;47.080;15.410;2022-08-19T09:05:03;21.10;99.90
34095;DHT22;20372;47.080;15.410;2022-08-19T09:10:14;21.10;98.80
34095;DHT22;20372;47.080;15.410;2022-08-19T09:15:09;21.00;99.30
34095;DHT22;20372;47.080;15.410;2022-08-19T09:17:35;21.10;99.90
34095;DHT22;20372;47.080;15.410;2022-08-19T09:22:36;21.40;99.90
34095;DHT22;20372;47.080;15.410;2022-08-19T09:25:03;21.50;99.40
34095;DHT22;20372;47.080;15.410;2022-08-19T09:27:30;21.60;99.50
34095;DHT22;20372;47.080;15.410;2022-08-19T09:29:57;21.80;99.90
34095;DHT22;20372;47.080;15.410;2022-08-19T09:32:23;21.80;99.70
34095;DHT22;20372;47.080;15.410;2022-08-19T09:34:52;21.80;99.70
34095;DHT22;20372;47.080;15.410;2022-08-19T09:37:20;21.80;99.70
34095;DHT22;20372;47.080;15.410;2022-08-19T09:39:47;21.50;98.50
34095;DHT22;20372;47.080;15.410;2022-08-19T09:42:13;21.60;98.90
34095;DHT22;20372;47.080;15.410;2022-08-19T09:44:39;21.80;98.00
34095;DHT22;20372;47.080;15.410;2022-08-19T09:47:05;22.20;97.70
34095;DHT22;20372;47.080;15.410;2022-08-19T09:49:32;22.30;97.80
34095;DHT22;20372;47.080;15.410;2022-08-19T09:51:58;22.30;97.80
34095;DHT22;20372;47.080;15.410;2022-08-19T09:54:24;22.10;98.30
34095;DHT22;20372;47.080;15.410;2022-08-19T09:56:51;22.20;98.00
34095;DHT22;20372;47.080;15.410;2022-08-19T09:59:16;22.30;97.80
34095;DHT22;20372;47.080;15.410;2022-08-19T10:01:42;22.20;97.30
34095;DHT22;20372;47.080;15.410;2022-08-19T10:04:08;22.20;97.90
34095;DHT22;20372;47.080;15.410;2022-08-19T10:06:34;22.50;99.60
34095;DHT22;20372;47.080;15.410;2022-08-19T10:09:00;22.60;97.80
34095;DHT22;20372;47.080;15.410;2022-08-19T10:11:26;22.60;96.60
34095;DHT22;20372;47.080;15.410;2022-08-19T10:13:53;22.70;98.40
34095;DHT22;20372;47.080;15.410;2022-08-19T10:16:19;22.90;97.70
34095;DHT22;20372;47.080;15.410;2022-08-19T10:18:47;22.70;95.90
34095;DHT22;20372;47.080;15.410;2022-08-19T10:21:15;22.60;96.70
34095;DHT22;20372;47.080;15.410;2022-08-19T10:23:42;22.60;96.50
34095;DHT22;20372;47.080;15.410;2022-08-19T10:26:15;22.50;96.20
34095;DHT22;20372;47.080;15.410;2022-08-19T10:28:41;22.60;96.60
34095;DHT22;20372;47.080;15.410;2022-08-19T10:31:08;22.60;95.60
34095;DHT22;20372;47.080;15.410;2022-08-19T10:33:34;22.60;96.30
34095;DHT22;20372;47.080;15.410;2022-08-19T10:36:03;22.60;97.00
34095;DHT22;20372;47.080;15.410;2022-08-19T10:38:29;22.70;97.50
34095;DHT22;20372;47.080;15.410;2022-08-19T10:40:56;22.70;97.30
34095;DHT22;20372;47.080;15.410;2022-08-19T10:43:22;22.80;97.30
34095;DHT22;20372;47.080;15.410;2022-08-19T10:45:51;22.90;96.00
34095;DHT22;20372;47.080;15.410;2022-08-19T10:48:17;23.00;96.20
34095;DHT22;20372;47.080;15.410;2022-08-19T10:50:42;23.20;96.30
34095;DHT22;20372;47.080;15.410;2022-08-19T10:53:26;23.50;95.20
34095;DHT22;20372;47.080;15.410;2022-08-19T10:55:52;23.70;95.10
34095;DHT22;20372;47.080;15.410;2022-08-19T10:58:36;23.80;95.60
34095;DHT22;20372;47.080;15.410;2022-08-19T11:01:01;23.80;96.20
34095;DHT22;20372;47.080;15.410;2022-08-19T11:03:27;23.60;94.60
34095;DHT22;20372;47.080;15.410;2022-08-19T11:05:59;23.50;94.60
34095;DHT22;20372;47.080;15.410;2022-08-19T11:08:25;23.70;94.50
34095;DHT22;20372;47.080;15.410;2022-08-19T11:10:52;23.70;94.40
34095;DHT22;20372;47.080;15.410;2022-08-19T11:13:22;23.90;94.50
34095;DHT22;20372;47.080;15.410;2022-08-19T11:15:56;23.90;93.10
34095;DHT22;20372;47.080;15.410;2022-08-19T11:18:21;24.00;93.50
34095;DHT22;20372;47.080;15.410;2022-08-19T11:20:47;23.90;93.60
34095;DHT22;20372;47.080;15.410;2022-08-19T11:23:12;24.40;93.60
34095;DHT22;20372;47.080;15.410;2022-08-19T11:25:38;24.70;94.50
34095;DHT22;20372;47.080;15.410;2022-08-19T11:28:04;24.50;93.20
34095;DHT22;20372;47.080;15.410;2022-08-19T11:30:30;24.90;94.80
34095;DHT22;20372;47.080;15.410;2022-08-19T11:32:55;25.20;94.40
34095;DHT22;20372;47.080;15.410;2022-08-19T11:35:21;25.20;93.30
34095;DHT22;20372;47.080;15.410;2022-08-19T11:37:48;25.00;92.20
34095;DHT22;20372;47.080;15.410;2022-08-19T11:40:14;24.70;91.60
34095;DHT22;20372;47.080;15.410;2022-08-19T11:42:39;24.70;92.60
34095;DHT22;20372;47.080;15.410;2022-08-19T11:45:21;24.70;92.70
34095;DHT22;20372;47.080;15.410;2022-08-19T11:47:47;24.70;93.40
34095;DHT22;20372;47.080;15.410;2022-08-19T11:50:14;24.70;91.80
34095;DHT22;20372;47.080;15.410;2022-08-19T11:52:40;24.80;91.00
34095;DHT22;20372;47.080;15.410;2022-08-19T11:55:06;25.00;89.40
34095;DHT22;20372;47.080;15.410;2022-08-19T11:57:32;25.10;87.60
34095;DHT22;20372;47.080;15.410;2022-08-19T11:59:58;25.00;88.90
34095;DHT22;20372;47.080;15.410;2022-08-19T12:02:23;25.10;86.90
34095;DHT22;20372;47.080;15.410;2022-08-19T12:04:49;25.00;86.50
34095;DHT22;20372;47.080;15.410;2022-08-19T12:07:14;24.90;87.60
34095;DHT22;20372;47.080;15.410;2022-08-19T12:09:40;25.00;87.80
34095;DHT22;20372;47.080;15.410;2022-08-19T12:12:06;25.30;86.40
34095;DHT22;20372;47.080;15.410;2022-08-19T12:14:31;25.50;87.30
34095;DHT22;20372;47.080;15.410;2022-08-19T12:16:57;25.40;86.40
34095;DHT22;20372;47.080;15.410;2022-08-19T12:19:23;25.50;84.60
34095;DHT22;20372;47.080;15.410;2022-08-19T12:21:50;25.60;83.80
34095;DHT22;20372;47.080;15.410;2022-08-19T12:24:16;25.60;83.30
34095;DHT22;20372;47.080;15.410;2022-08-19T12:26:48;25.60;84.00
34095;DHT22;20372;47.080;15.410;2022-08-19T12:29:14;25.80;82.10
34095;DHT22;20372;47.080;15.410;2022-08-19T12:31:40;26.10;79.60
34095;DHT22;20372;47.080;15.410;2022-08-19T12:34:05;26.10;79.40
34095;DHT22;20372;47.080;15.410;2022-08-19T12:36:31;26.20;78.70
34095;DHT22;20372;47.080;15.410;2022-08-19T12:38:58;26.20;76.70
34095;DHT22;20372;47.080;15.410;2022-08-19T12:41:25;26.20;77.10
34095;DHT22;20372;47.080;15.410;2022-08-19T12:43:50;26.30;83.00
34095;DHT22;20372;47.080;15.410;2022-08-19T12:46:16;26.30;77.10
34095;DHT22;20372;47.080;15.410;2022-08-19T12:48:42;26.10;77.80
34095;DHT22;20372;47.080;15.410;2022-08-19T12:51:12;26.20;77.50
34095;DHT22;20372;47.080;15.410;2022-08-19T12:53:38;26.50;81.80
34095;DHT22;20372;47.080;15.410;2022-08-19T12:56:04;26.90;80.00
34095;DHT22;20372;47.080;15.410;2022-08-19T12:58:30;26.60;77.30
34095;DHT22;20372;47.080;15.410;2022-08-19T13:00:56;26.80;78.00
34095;DHT22;20372;47.080;15.410;2022-08-19T13:03:21;26.80;77.70
34095;DHT22;20372;47.080;15.410;2022-08-19T13:05:52;26.60;75.90
34095;DHT22;20372;47.080;15.410;2022-08-19T13:08:18;26.40;76.20
34095;DHT22;20372;47.080;15.410;2022-08-19T13:10:43;26.30;77.20
34095;DHT22;20372;47.080;15.410;2022-08-19T13:13:09;26.40;79.70
34095;DHT22;20372;47.080;15.410;2022-08-19T13:15:37;26.60;79.00
34095;DHT22;20372;47.080;15.410;2022-08-19T13:18:05;26.60;78.50
34095;DHT22;20372;47.080;15.410;2022-08-19T13:20:31;26.50;76.30
34095;DHT22;20372;47.080;15.410;2022-08-19T13:22:57;26.50;77.30
34095;DHT22;20372;47.080;15.410;2022-08-19T13:25:23;26.20;75.30
34095;DHT22;20372;47.080;15.410;2022-08-19T13:27:49;26.20;75.80
34095;DHT22;20372;47.080;15.410;2022-08-19T13:30:16;26.50;77.30
34095;DHT22;20372;47.080;15.410;2022-08-19T13:33:01;26.70;78.50
34095;DHT22;20372;47.080;15.410;2022-08-19T13:35:43;26.70;77.70
34095;DHT22;20372;47.080;15.410;2022-08-19T13:38:09;26.60;75.80
34095;DHT22;20372;47.080;15.410;2022-08-19T13:40:36;26.70;77.20
34095;DHT22;20372;47.080;15.410;2022-08-19T13:43:02;26.80;75.10
34095;DHT22;20372;47.080;15.410;2022-08-19T13:45:29;26.80;78.50
34095;DHT22;20372;47.080;15.410;2022-08-19T13:47:56;27.10;75.10
34095;DHT22;20372;47.080;15.410;2022-08-19T13:50:23;27.40;80.40
34095;DHT22;20372;47.080;15.410;2022-08-19T13:52:51;27.60;77.70
34095;DHT22;20372;47.080;15.410;2022-08-19T13:55:17;27.60;75.90
34095;DHT22;20372;47.080;15.410;2022-08-19T13:57:42;27.20;74.50
34095;DHT22;20372;47.080;15.410;2022-08-19T14:00:09;26.70;75.10
34095;DHT22;20372;47.080;15.410;2022-08-19T14:02:36;26.80;77.80
34095;DHT22;20372;47.080;15.410;2022-08-19T14:05:03;27.10;75.10
34095;DHT22;20372;47.080;15.410;2022-08-19T14:07:29;27.40;77.00
34095;DHT22;20372;47.080;15.410;2022-08-19T14:09:54;27.50;75.80
34095;DHT22;20372;47.080;15.410;2022-08-19T14:12:20;27.40;76.70
34095;DHT22;20372;47.080;15.410;2022-08-19T14:14:46;27.40;73.60
34095;DHT22;20372;47.080;15.410;2022-08-19T14:17:12;27.30;74.80
34095;DHT22;20372;47.080;15.410;2022-08-19T14:19:37;27.40;76.70
34095;DHT22;20372;47.080;15.410;2022-08-19T14:22:03;27.30;76.50
34095;DHT22;20372;47.080;15.410;2022-08-19T14:24:29;27.10;74.20
34095;DHT22;20372;47.080;15.410;2022-08-19T14:26:55;27.00;73.00
34095;DHT22;20372;47.080;15.410;2022-08-19T14:29:22;26.90;73.20
34095;DHT22;20372;47.080;15.410;2022-08-19T14:31:48;26.80;73.10
34095;DHT22;20372;47.080;15.410;2022-08-19T14:34:14;26.80;75.60
34095;DHT22;20372;47.080;15.410;2022-08-19T14:36:39;27.00;74.00
34095;DHT22;20372;47.080;15.410;2022-08-19T14:39:07;27.00;74.00
34095;DHT22;20372;47.080;15.410;2022-08-19T14:41:34;27.00;73.50
34095;DHT22;20372;47.080;15.410;2022-08-19T14:44:00;27.00;73.30
34095;DHT22;20372;47.080;15.410;2022-08-19T14:46:27;26.90;74.20
34095;DHT22;20372;47.080;15.410;2022-08-19T14:48:53;26.90;73.90
34095;DHT22;20372;47.080;15.410;2022-08-19T14:51:20;27.20;75.50
34095;DHT22;20372;47.080;15.410;2022-08-19T14:53:46;27.40;74.50
34095;DHT22;20372;47.080;15.410;2022-08-19T14:56:15;27.40;74.60
34095;DHT22;20372;47.080;15.410;2022-08-19T14:58:41;27.70;76.40
34095;DHT22;20372;47.080;15.410;2022-08-19T15:01:08;27.60;72.90
34095;DHT22;20372;47.080;15.410;2022-08-19T15:03:34;27.50;74.00
34095;DHT22;20372;47.080;15.410;2022-08-19T15:06:00;27.50;73.80
34095;DHT22;20372;47.080;15.410;2022-08-19T15:08:27;27.40;73.50
34095;DHT22;20372;47.080;15.410;2022-08-19T15:10:53;27.40;73.60
34095;DHT22;20372;47.080;15.410;2022-08-19T15:13:19;27.40;73.40
34095;DHT22;20372;47.080;15.410;2022-08-19T15:15:45;27.40;74.30
34095;DHT22;20372;47.080;15.410;2022-08-19T15:18:12;27.40;76.90
34095;DHT22;20372;47.080;15.410;2022-08-19T15:20:38;27.20;76.00
34095;DHT22;20372;47.080;15.410;2022-08-19T15:23:04;27.40;76.80
34095;DHT22;20372;47.080;15.410;2022-08-19T15:25:30;27.60;76.70